Aldrich, Missouri
Current Conditions -  °F | °C
As of 12:52 PM on Thursday 23 Oct 2014 (Local Time) from KSGF Reporting Station
Overcast Overcast  
Wind Chill: 58°   Ceiling: 9000
Heat Index: 58°   Visibility: 10mi
Dew Point: 51°   Wind: 9mph
Humidity: 78%   Direction: 200°SSW
Pressure: 30.15"   Gusts: NA
Location:  37.55°N, 93.55°W
Report Text: KSGF 231752Z 20008KT 10SM OVC090 14/11 A3015 RMK AO2 SLP209 60001 T01440106 10144 20117 58010
Loading
Personal Weather Stations






























Interactive Weather Map
Tropical Storm Tracking
New forecast layout! Learn more

10-Day Weather Forecast

Advertisements
Track Severe Weather on mobile